Creek Data

    Home     View Charts     View Raw Data     Messages

ID Distance Battery Voltage Battery Current Internal Temp Internal Humidity External Temp Solar Input rssi snr Time Stamp Record
64564 14.8 3.62 6 39 48 39 4.5 -82 7 01/27/2026 08:15 AM 47323
64563 14.8 3.77 6 39 48 39 4.5 -86 8 01/27/2026 08:00 AM 47322
64562 14.8 3.57 0 38 48 38 4.5 -87 8 01/27/2026 07:45 AM 47321
64561 14.8 3.69 -7 38 48 38 4.5 -85 8 01/27/2026 07:30 AM 47320
64560 14.8 3.52 -5 37 49 38 1.6 -91 7 01/27/2026 07:15 AM 47319
64559 14.8 3.70 -5 37 49 38 1.3 -92 7 01/27/2026 07:00 AM 47318
64558 14.8 3.53 -5 37 49 38 0 -90 8 01/27/2026 06:45 AM 47317
64557 14.8 3.71 -5 37 49 38 0 -87 7 01/27/2026 06:30 AM 47316
64556 14.8 3.55 -5 36 48 37 0 -84 8 01/27/2026 06:15 AM 47315
64555 14.8 3.56 -34 36 48 37 0 -82 9 01/27/2026 06:00 AM 47314
64554 14.8 3.55 -5 36 48 37 0.1 -81 8 01/27/2026 05:45 AM 47313
64553 14.8 3.56 -5 35 49 37 0 -81 8 01/27/2026 05:30 AM 47312
64552 14.8 3.57 -5 34 49 36 0.1 -81 9 01/27/2026 05:15 AM 47311
64551 14.8 3.61 -5 34 49 35 0 -80 8 01/27/2026 05:00 AM 47310
64550 14.8 3.62 -5 35 49 37 0 -80 8 01/27/2026 04:45 AM 47309
64549 14.8 3.72 -5 35 49 37 0 -78 8 01/27/2026 04:30 AM 47308
64548 14.8 3.61 -5 35 49 37 0 -77 8 01/27/2026 04:15 AM 47307
64547 14.8 3.61 -5 35 49 37 0 -77 8 01/27/2026 04:00 AM 47306
64546 14.8 3.61 -5 35 49 38 0.1 -78 7 01/27/2026 03:45 AM 47305
64545 14.8 3.61 -5 35 49 37 0 -78 8 01/27/2026 03:30 AM 47304
64544 14.8 3.73 -5 35 49 37 0.1 -77 7 01/27/2026 03:15 AM 47303
64543 14.8 3.63 -5 35 49 38 0 -77 8 01/27/2026 03:00 AM 47302
64542 14.8 3.73 -5 35 49 38 0 -77 8 01/27/2026 02:45 AM 47301
64541 14.8 3.63 -5 35 49 37 0 -77 8 01/27/2026 02:30 AM 47300
64540 14.8 3.62 -5 35 49 37 0 -77 9 01/27/2026 02:15 AM 47299